Time;durP1;ratioP1;P1;durP2;ratioP2;P2;SDS_P1;SDS_P2;PMS_P1;PMS_P2;Temp;Humidity;BMP_temperature;BMP_pressure;BME280_temperature;BME280_humidity;BME280_pressure;Samples;Min_cycle;Max_cycle;Signal;HPM_P1;HPM_P2
2024/03/15 00:00:36;;;;;;;1.42;1.05;;;;;;;;;;5032370;28;20403;-76
2024/03/15 00:03:02;;;;;;;0.98;0.90;;;;;;;;;;5030272;28;20060;-76
2024/03/15 00:05:30;;;;;;;1.15;0.80;;;;;;;;;;5032642;28;20021;-76
2024/03/15 00:07:56;;;;;;;0.95;0.93;;;;;;;;;;5038330;28;20402;-76
2024/03/15 00:10:22;;;;;;;1.45;0.98;;;;;;;;;;5035290;28;20025;-76
2024/03/15 00:12:49;;;;;;;0.85;0.85;;;;;;;;;;5028402;28;20068;-76
2024/03/15 00:15:16;;;;;;;1.08;0.82;;;;;;;;;;5031244;28;20483;-76
2024/03/15 00:17:42;;;;;;;1.38;1.00;;;;;;;;;;5031727;28;20494;-75
2024/03/15 00:20:10;;;;;;;1.25;0.85;;;;;;;;;;5031673;28;20112;-75
2024/03/15 00:22:36;;;;;;;1.08;0.95;;;;;;;;;;5031126;28;20021;-76
2024/03/15 00:25:03;;;;;;;0.88;0.88;;;;;;;;;;5028398;28;20117;-76
2024/03/15 00:27:29;;;;;;;1.13;0.70;;;;;;;;;;5027803;28;20026;-75
2024/03/15 00:29:55;;;;;;;1.58;0.88;;;;;;;;;;5029050;28;20029;-76
2024/03/15 00:32:25;;;;;;;1.08;0.80;;;;;;;;;;5037729;28;20052;-76
2024/03/15 00:34:51;;;;;;;1.30;1.10;;;;;;;;;;5033734;28;20009;-75
2024/03/15 00:37:18;;;;;;;1.05;0.80;;;;;;;;;;5032068;28;20345;-76
2024/03/15 00:39:44;;;;;;;1.05;0.93;;;;;;;;;;5031827;28;20022;-76
2024/03/15 00:42:10;;;;;;;1.80;1.02;;;;;;;;;;5030293;28;20033;-75
2024/03/15 00:44:36;;;;;;;1.35;1.10;;;;;;;;;;5030802;28;20115;-76
2024/03/15 00:47:02;;;;;;;0.93;0.93;;;;;;;;;;5033296;28;20116;-76
2024/03/15 00:49:28;;;;;;;1.45;1.00;;;;;;;;;;5031778;28;20479;-75
2024/03/15 00:51:54;;;;;;;0.90;0.90;;;;;;;;;;5033677;28;20452;-75
2024/03/15 00:54:22;;;;;;;0.80;0.80;;;;;;;;;;5036966;28;20025;-74
2024/03/15 00:56:48;;;;;;;1.05;0.88;;;;;;;;;;5037295;28;20073;-75
2024/03/15 00:59:15;;;;;;;1.08;0.80;;;;;;;;;;5031988;28;20134;-76
2024/03/15 01:01:42;;;;;;;0.95;0.90;;;;;;;;;;5032809;28;20472;-75
2024/03/15 01:04:09;;;;;;;0.80;0.60;;;;;;;;;;5047781;28;20030;-75
2024/03/15 01:06:35;;;;;;;0.70;0.70;;;;;;;;;;5031808;28;20025;-76
2024/03/15 01:09:01;;;;;;;0.88;0.88;;;;;;;;;;5021225;28;20026;-76
2024/03/15 01:11:28;;;;;;;0.80;0.70;;;;;;;;;;5036108;28;20093;-76
2024/03/15 01:13:57;;;;;;;1.60;0.98;;;;;;;;;;5048500;28;20025;-76
2024/03/15 01:16:24;;;;;;;1.48;0.70;;;;;;;;;;5041096;28;20435;-76
2024/03/15 01:18:51;;;;;;;1.40;1.00;;;;;;;;;;5031142;28;20022;-75
2024/03/15 01:21:17;;;;;;;1.00;1.00;;;;;;;;;;5037904;28;20037;-75
2024/03/15 01:23:43;;;;;;;1.58;0.80;;;;;;;;;;5031771;28;20026;-75
2024/03/15 01:26:09;;;;;;;1.13;0.80;;;;;;;;;;5027640;28;20087;-76
2024/03/15 01:28:35;;;;;;;1.00;0.95;;;;;;;;;;5027961;28;20558;-75
2024/03/15 01:31:01;;;;;;;0.93;0.68;;;;;;;;;;5031725;28;20460;-76
2024/03/15 01:33:28;;;;;;;0.63;0.63;;;;;;;;;;5023950;28;20079;-76
2024/03/15 01:35:54;;;;;;;0.77;0.77;;;;;;;;;;5032714;28;20085;-76
2024/03/15 01:38:20;;;;;;;0.73;0.60;;;;;;;;;;5020068;28;20021;-75
2024/03/15 01:40:46;;;;;;;0.50;0.50;;;;;;;;;;5013448;28;20384;-76
2024/03/15 01:43:14;;;;;;;0.50;0.50;;;;;;;;;;5016396;28;20021;-76
2024/03/15 01:45:40;;;;;;;0.60;0.60;;;;;;;;;;5031235;28;20480;-75
2024/03/15 01:48:07;;;;;;;1.00;0.60;;;;;;;;;;5031091;28;20824;-76
2024/03/15 01:50:34;;;;;;;1.38;0.70;;;;;;;;;;5030456;28;20025;-75
2024/03/15 01:53:02;;;;;;;0.85;0.50;;;;;;;;;;5030918;28;20053;-76
2024/03/15 01:55:28;;;;;;;1.75;0.60;;;;;;;;;;5031743;28;20578;-75
2024/03/15 01:57:54;;;;;;;0.80;0.73;;;;;;;;;;5031429;28;20476;-76
2024/03/15 02:00:20;;;;;;;0.82;0.80;;;;;;;;;;5028753;28;20452;-76
2024/03/15 02:02:48;;;;;;;0.90;0.77;;;;;;;;;;5033240;28;20075;-76
2024/03/15 02:05:15;;;;;;;0.38;0.38;;;;;;;;;;5035157;28;20014;-76
2024/03/15 02:07:41;;;;;;;1.42;0.95;;;;;;;;;;5035287;28;20024;-76
2024/03/15 02:10:20;;;;;;;0.63;0.63;;;;;;;;;;5041786;28;20379;-76
2024/03/15 02:12:46;;;;;;;0.65;0.55;;;;;;;;;;5032836;28;20037;-76
2024/03/15 02:15:14;;;;;;;0.40;0.40;;;;;;;;;;5033454;28;20085;-76
2024/03/15 02:17:42;;;;;;;0.70;0.70;;;;;;;;;;5033592;28;20507;-75
2024/03/15 02:20:11;;;;;;;0.85;0.70;;;;;;;;;;5040532;28;20021;-76
2024/03/15 02:22:39;;;;;;;0.70;0.50;;;;;;;;;;5039416;28;20057;-76
2024/03/15 02:25:07;;;;;;;0.40;0.30;;;;;;;;;;5044304;28;20041;-76
2024/03/15 02:27:33;;;;;;;0.30;0.30;;;;;;;;;;5035323;28;20408;-76
2024/03/15 02:29:59;;;;;;;0.55;0.43;;;;;;;;;;5038418;28;20057;-75
2024/03/15 02:32:27;;;;;;;0.45;0.45;;;;;;;;;;5029831;28;20125;-76
2024/03/15 02:34:54;;;;;;;0.50;0.38;;;;;;;;;;5032092;28;20091;-76
2024/03/15 02:37:20;;;;;;;0.50;0.40;;;;;;;;;;5032939;28;20490;-76
2024/03/15 02:39:46;;;;;;;0.80;0.80;;;;;;;;;;5025942;28;20041;-76
2024/03/15 02:42:12;;;;;;;0.60;0.30;;;;;;;;;;5021433;28;20018;-76
2024/03/15 02:44:39;;;;;;;0.40;0.40;;;;;;;;;;5038753;28;20017;-76
2024/03/15 02:47:06;;;;;;;0.75;0.55;;;;;;;;;;5043225;28;20029;-77
2024/03/15 02:49:32;;;;;;;0.30;0.30;;;;;;;;;;5040436;28;20031;-76
2024/03/15 02:51:58;;;;;;;0.50;0.40;;;;;;;;;;5042863;28;20025;-76
2024/03/15 02:54:25;;;;;;;0.75;0.40;;;;;;;;;;5032846;28;20030;-75
2024/03/15 02:56:51;;;;;;;0.47;0.43;;;;;;;;;;5039066;28;20098;-75
2024/03/15 02:59:19;;;;;;;0.50;0.50;;;;;;;;;;5039144;28;20030;-75
2024/03/15 03:01:46;;;;;;;0.40;0.40;;;;;;;;;;5036834;28;20021;-77
2024/03/15 03:04:12;;;;;;;0.95;0.47;;;;;;;;;;5030780;28;20035;-75
2024/03/15 03:06:39;;;;;;;0.40;0.30;;;;;;;;;;5033857;28;20021;-76
2024/03/15 03:09:09;;;;;;;0.73;0.40;;;;;;;;;;5032804;28;20094;-76
2024/03/15 03:11:36;;;;;;;0.40;0.40;;;;;;;;;;5016014;28;20040;-75
2024/03/15 03:14:04;;;;;;;0.40;0.40;;;;;;;;;;5027250;28;20033;-76
2024/03/15 03:16:34;;;;;;;0.85;0.57;;;;;;;;;;5034411;28;20071;-76
2024/03/15 03:19:00;;;;;;;0.50;0.40;;;;;;;;;;5034273;28;20033;-75
2024/03/15 03:21:27;;;;;;;0.43;0.40;;;;;;;;;;5024728;28;20040;-75
2024/03/15 03:24:00;;;;;;;0.45;0.45;;;;;;;;;;5024671;28;20026;-76
2024/03/15 03:26:27;;;;;;;0.30;0.30;;;;;;;;;;5032668;28;20225;-76
2024/03/15 03:28:56;;;;;;;0.50;0.50;;;;;;;;;;5032114;28;20065;-76
2024/03/15 03:31:22;;;;;;;0.20;0.20;;;;;;;;;;5031790;28;20030;-76
2024/03/15 03:33:48;;;;;;;0.32;0.32;;;;;;;;;;5039118;28;20021;-76
2024/03/15 03:36:15;;;;;;;0.70;0.55;;;;;;;;;;5033273;28;20072;-77
2024/03/15 03:38:42;;;;;;;0.45;0.43;;;;;;;;;;5041400;28;20025;-76
2024/03/15 03:41:08;;;;;;;0.30;0.30;;;;;;;;;;5015974;28;20022;-77
2024/03/15 03:43:35;;;;;;;0.98;0.32;;;;;;;;;;5015503;28;20337;-76
2024/03/15 03:46:01;;;;;;;0.22;0.22;;;;;;;;;;5030255;28;20018;-77
2024/03/15 03:48:29;;;;;;;0.32;0.28;;;;;;;;;;5034925;28;20028;-76
2024/03/15 03:50:55;;;;;;;0.30;0.30;;;;;;;;;;5021470;28;20017;-76
2024/03/15 03:53:21;;;;;;;0.40;0.35;;;;;;;;;;5032366;28;20037;-75
2024/03/15 03:55:48;;;;;;;0.57;0.40;;;;;;;;;;5035651;28;20033;-77
2024/03/15 03:58:14;;;;;;;0.40;0.40;;;;;;;;;;5039442;28;20051;-76
2024/03/15 04:00:40;;;;;;;1.05;0.73;;;;;;;;;;5035384;28;20587;-75
2024/03/15 04:03:06;;;;;;;0.30;0.30;;;;;;;;;;5023471;28;20033;-76
2024/03/15 04:05:32;;;;;;;0.50;0.40;;;;;;;;;;5032032;28;20025;-76
2024/03/15 04:07:59;;;;;;;0.50;0.50;;;;;;;;;;5032000;28;20037;-76
2024/03/15 04:10:26;;;;;;;0.57;0.57;;;;;;;;;;5024432;28;20029;-76
2024/03/15 04:12:55;;;;;;;0.52;0.52;;;;;;;;;;5021441;28;20049;-75
2024/03/15 04:15:21;;;;;;;0.35;0.32;;;;;;;;;;5031925;28;20389;-76
2024/03/15 04:17:47;;;;;;;0.70;0.57;;;;;;;;;;5031232;28;20033;-76
2024/03/15 04:20:16;;;;;;;0.40;0.40;;;;;;;;;;5022973;28;20025;-76
2024/03/15 04:22:45;;;;;;;0.50;0.50;;;;;;;;;;5031162;28;20018;-76
2024/03/15 04:25:16;;;;;;;0.40;0.40;;;;;;;;;;5019818;28;20029;-76
2024/03/15 04:27:51;;;;;;;0.40;0.40;;;;;;;;;;5026452;28;20033;-76
2024/03/15 04:30:18;;;;;;;0.88;0.50;;;;;;;;;;5022648;28;20103;-77
2024/03/15 04:32:49;;;;;;;0.38;0.35;;;;;;;;;;5023501;28;20117;-76
2024/03/15 04:35:18;;;;;;;0.50;0.50;;;;;;;;;;5024259;28;20017;-76
2024/03/15 04:37:45;;;;;;;0.30;0.30;;;;;;;;;;5031879;28;20027;-76
2024/03/15 04:40:13;;;;;;;0.50;0.50;;;;;;;;;;5032963;28;20380;-76
2024/03/15 04:42:39;;;;;;;0.50;0.30;;;;;;;;;;5018446;28;20025;-76
2024/03/15 04:45:08;;;;;;;0.40;0.40;;;;;;;;;;5020935;28;20022;-76
2024/03/15 04:47:34;;;;;;;0.55;0.30;;;;;;;;;;5052255;28;20020;-74
2024/03/15 04:50:00;;;;;;;0.40;0.40;;;;;;;;;;5059844;28;20080;-75
2024/03/15 04:52:27;;;;;;;0.30;0.30;;;;;;;;;;5038250;28;20083;-76
2024/03/15 04:54:54;;;;;;;0.22;0.22;;;;;;;;;;5021378;28;20486;-75
2024/03/15 04:57:25;;;;;;;0.43;0.40;;;;;;;;;;5027906;28;20025;-77
2024/03/15 04:59:51;;;;;;;0.40;0.40;;;;;;;;;;5029652;28;20353;-76
2024/03/15 05:02:18;;;;;;;0.20;0.20;;;;;;;;;;5037436;28;20488;-76
2024/03/15 05:04:44;;;;;;;0.22;0.22;;;;;;;;;;5055521;28;20057;-76
2024/03/15 05:07:12;;;;;;;0.40;0.40;;;;;;;;;;5048956;28;20021;-76
2024/03/15 05:09:38;;;;;;;0.30;0.30;;;;;;;;;;5048710;28;20040;-76
2024/03/15 05:12:04;;;;;;;0.73;0.50;;;;;;;;;;5036024;28;20048;-76
2024/03/15 05:14:30;;;;;;;0.30;0.30;;;;;;;;;;5028495;28;20017;-76
2024/03/15 05:16:57;;;;;;;0.30;0.30;;;;;;;;;;5028650;28;20025;-75
2024/03/15 05:19:23;;;;;;;0.40;0.40;;;;;;;;;;5046798;28;20024;-76
2024/03/15 05:21:49;;;;;;;0.88;0.30;;;;;;;;;;5037083;28;20029;-76
2024/03/15 05:24:16;;;;;;;0.22;0.22;;;;;;;;;;5035412;28;20040;-76
2024/03/15 05:26:42;;;;;;;0.63;0.30;;;;;;;;;;5028808;28;20041;-76
2024/03/15 05:29:09;;;;;;;0.20;0.20;;;;;;;;;;5032335;28;20029;-76
2024/03/15 05:31:35;;;;;;;0.20;0.20;;;;;;;;;;5032567;28;20029;-78
2024/03/15 05:34:07;;;;;;;0.30;0.30;;;;;;;;;;5024839;28;20029;-79
2024/03/15 05:36:34;;;;;;;0.30;0.30;;;;;;;;;;5030067;28;20017;-77
2024/03/15 05:39:00;;;;;;;0.30;0.30;;;;;;;;;;5027582;28;20025;-78
2024/03/15 05:41:26;;;;;;;0.60;0.30;;;;;;;;;;5027944;28;20037;-77
2024/03/15 05:43:52;;;;;;;0.30;0.30;;;;;;;;;;5034369;28;20097;-74
2024/03/15 05:46:19;;;;;;;0.35;0.35;;;;;;;;;;5047290;28;20056;-77
2024/03/15 05:48:45;;;;;;;0.30;0.30;;;;;;;;;;5033161;28;20030;-78
2024/03/15 05:51:11;;;;;;;0.40;0.35;;;;;;;;;;5032564;28;20026;-77
2024/03/15 05:53:37;;;;;;;0.40;0.38;;;;;;;;;;5036736;28;20021;-75
2024/03/15 05:56:04;;;;;;;0.45;0.32;;;;;;;;;;5036586;28;20025;-74
2024/03/15 05:58:30;;;;;;;0.30;0.30;;;;;;;;;;5035639;28;20014;-75
2024/03/15 06:00:56;;;;;;;0.20;0.20;;;;;;;;;;5035278;28;20022;-76
2024/03/15 06:03:22;;;;;;;1.98;1.00;;;;;;;;;;5035980;28;20021;-77
2024/03/15 06:05:50;;;;;;;1.23;0.80;;;;;;;;;;5027757;28;20025;-76
2024/03/15 06:08:16;;;;;;;1.23;0.80;;;;;;;;;;5040001;28;20079;-77
2024/03/15 06:10:42;;;;;;;0.82;0.82;;;;;;;;;;5041938;28;20021;-75
2024/03/15 06:13:09;;;;;;;0.52;0.52;;;;;;;;;;5019926;28;20503;-75
2024/03/15 06:15:37;;;;;;;1.65;0.50;;;;;;;;;;5016514;28;20051;-75
2024/03/15 06:18:04;;;;;;;0.63;0.50;;;;;;;;;;5025567;28;20093;-77
2024/03/15 06:20:31;;;;;;;0.70;0.50;;;;;;;;;;5034791;28;20363;-76
2024/03/15 06:22:57;;;;;;;0.60;0.57;;;;;;;;;;5044739;28;20021;-76
2024/03/15 06:25:25;;;;;;;0.50;0.50;;;;;;;;;;5039721;28;20072;-75
2024/03/15 06:27:51;;;;;;;0.40;0.40;;;;;;;;;;5038246;28;20100;-76
2024/03/15 06:30:18;;;;;;;0.60;0.60;;;;;;;;;;5031678;28;20026;-76
2024/03/15 06:32:44;;;;;;;0.70;0.40;;;;;;;;;;5027259;28;20026;-75
2024/03/15 06:35:20;;;;;;;0.35;0.35;;;;;;;;;;5037337;28;20025;-75
2024/03/15 06:37:46;;;;;;;0.30;0.30;;;;;;;;;;5038919;28;20029;-76
2024/03/15 06:40:30;;;;;;;0.75;0.70;;;;;;;;;;5018327;28;20397;-76
2024/03/15 06:45:52;;;;;;;1.45;0.70;;;;;;;;;;5036612;28;20026;-76
2024/03/15 06:48:22;;;;;;;0.43;0.35;;;;;;;;;;5031504;28;20025;-78
2024/03/15 06:53:40;;;;;;;0.75;0.60;;;;;;;;;;5017176;28;20093;-78
2024/03/15 06:56:06;;;;;;;0.30;0.30;;;;;;;;;;5034281;28;20503;-78
2024/03/15 06:58:32;;;;;;;0.82;0.68;;;;;;;;;;5036500;28;20017;-77
2024/03/15 07:00:59;;;;;;;0.82;0.80;;;;;;;;;;5045099;28;20488;-77
2024/03/15 07:03:25;;;;;;;0.55;0.55;;;;;;;;;;5041924;28;20040;-78
2024/03/15 07:05:51;;;;;;;0.55;0.45;;;;;;;;;;5036869;28;20112;-77
2024/03/15 07:08:28;;;;;;;0.75;0.50;;;;;;;;;;5058817;28;20028;-81
2024/03/15 07:13:58;;;;;;;0.73;0.50;;;;;;;;;;5069824;28;20055;-78
2024/03/15 07:16:28;;;;;;;0.40;0.40;;;;;;;;;;5056530;28;20108;-80
2024/03/15 07:18:55;;;;;;;0.50;0.38;;;;;;;;;;5040762;28;20345;-82
2024/03/15 07:21:22;;;;;;;0.52;0.52;;;;;;;;;;5049501;28;20236;-79
2024/03/15 07:23:48;;;;;;;0.30;0.30;;;;;;;;;;5040712;28;20036;-81
2024/03/15 07:26:15;;;;;;;0.40;0.40;;;;;;;;;;5038495;28;20059;-79
2024/03/15 07:28:42;;;;;;;0.50;0.50;;;;;;;;;;5038169;28;20029;-80
2024/03/15 07:31:09;;;;;;;0.77;0.20;;;;;;;;;;5055090;28;20383;-79
2024/03/15 07:33:37;;;;;;;0.50;0.50;;;;;;;;;;5036703;28;20492;-77
2024/03/15 07:36:05;;;;;;;0.40;0.40;;;;;;;;;;5047668;28;20084;-78
2024/03/15 07:38:33;;;;;;;0.50;0.50;;;;;;;;;;5041754;28;20022;-79
2024/03/15 07:41:10;;;;;;;1.17;0.40;;;;;;;;;;5052492;28;20463;-79
2024/03/15 07:43:36;;;;;;;0.57;0.50;;;;;;;;;;5048299;28;20044;-78
2024/03/15 07:46:05;;;;;;;0.60;0.45;;;;;;;;;;5021480;28;20403;-78
2024/03/15 07:48:31;;;;;;;0.55;0.50;;;;;;;;;;5040858;28;20108;-79
2024/03/15 07:51:01;;;;;;;0.88;0.55;;;;;;;;;;5050423;28;20111;-77
2024/03/15 07:53:27;;;;;;;0.85;0.60;;;;;;;;;;5035184;28;20474;-79
2024/03/15 07:55:56;;;;;;;1.00;0.68;;;;;;;;;;5053791;28;20020;-78
2024/03/15 07:58:26;;;;;;;1.75;0.75;;;;;;;;;;5055718;28;20084;-77
2024/03/15 08:00:53;;;;;;;1.42;0.80;;;;;;;;;;5039261;28;20032;-77
2024/03/15 08:03:19;;;;;;;1.88;0.75;;;;;;;;;;5035206;28;20101;-79
2024/03/15 08:05:48;;;;;;;0.80;0.80;;;;;;;;;;5036367;28;20034;-80
2024/03/15 08:08:15;;;;;;;0.98;0.80;;;;;;;;;;5036364;28;20075;-77
2024/03/15 08:10:42;;;;;;;1.17;0.90;;;;;;;;;;5050884;28;20067;-77
2024/03/15 08:13:11;;;;;;;0.65;0.55;;;;;;;;;;5047019;28;20029;-78
2024/03/15 08:15:37;;;;;;;0.65;0.50;;;;;;;;;;5056432;28;20535;-80
2024/03/15 08:18:05;;;;;;;1.70;0.82;;;;;;;;;;5038409;28;20085;-79
2024/03/15 08:20:32;;;;;;;2.70;1.23;;;;;;;;;;5048890;28;20013;-79
2024/03/15 08:22:58;;;;;;;1.13;0.50;;;;;;;;;;5039041;28;20021;-79
2024/03/15 08:25:24;;;;;;;1.60;0.90;;;;;;;;;;5036022;28;20033;-78
2024/03/15 08:27:50;;;;;;;1.13;0.55;;;;;;;;;;5035305;28;20035;-78
2024/03/15 08:30:17;;;;;;;1.17;1.02;;;;;;;;;;5037008;28;20484;-78
2024/03/15 08:32:43;;;;;;;1.38;0.95;;;;;;;;;;5036569;28;20025;-77
2024/03/15 08:35:13;;;;;;;1.20;0.90;;;;;;;;;;5037938;28;20033;-79
2024/03/15 08:37:42;;;;;;;1.40;1.00;;;;;;;;;;5052299;28;20024;-79
2024/03/15 08:40:12;;;;;;;2.03;1.08;;;;;;;;;;5045219;28;20171;-78
2024/03/15 08:42:39;;;;;;;1.05;0.80;;;;;;;;;;5053749;28;20096;-78
2024/03/15 08:45:08;;;;;;;0.82;0.82;;;;;;;;;;5065448;28;20085;-80
2024/03/15 08:47:35;;;;;;;1.73;0.90;;;;;;;;;;5054897;28;20052;-79
2024/03/15 08:50:03;;;;;;;0.80;0.80;;;;;;;;;;5057511;28;20022;-79
2024/03/15 08:52:29;;;;;;;1.27;1.02;;;;;;;;;;5074243;28;20028;-78
2024/03/15 08:54:55;;;;;;;1.75;0.80;;;;;;;;;;5050324;28;20021;-78
2024/03/15 08:57:22;;;;;;;1.13;0.80;;;;;;;;;;5043589;28;20045;-78
2024/03/15 08:59:49;;;;;;;1.00;0.90;;;;;;;;;;5049307;28;20373;-78
2024/03/15 09:02:15;;;;;;;1.40;1.00;;;;;;;;;;5052893;28;20048;-78
2024/03/15 09:04:41;;;;;;;1.05;0.88;;;;;;;;;;5058390;28;20037;-80
2024/03/15 09:07:07;;;;;;;1.20;1.10;;;;;;;;;;5043214;28;20041;-76
2024/03/15 09:09:34;;;;;;;1.90;1.08;;;;;;;;;;5042289;28;20429;-77
2024/03/15 09:12:00;;;;;;;1.20;0.90;;;;;;;;;;5025154;28;20444;-78
2024/03/15 09:14:29;;;;;;;3.78;1.30;;;;;;;;;;5039104;28;20052;-81
2024/03/15 09:16:56;;;;;;;1.23;1.10;;;;;;;;;;5040141;28;20101;-79
2024/03/15 09:19:22;;;;;;;0.93;0.93;;;;;;;;;;5050303;28;20561;-79
2024/03/15 09:21:48;;;;;;;1.88;1.38;;;;;;;;;;5035570;28;20056;-78
2024/03/15 09:24:15;;;;;;;2.05;1.10;;;;;;;;;;5033207;28;20018;-78
2024/03/15 09:26:41;;;;;;;1.25;1.05;;;;;;;;;;5040852;28;20060;-79
2024/03/15 09:29:08;;;;;;;1.65;1.10;;;;;;;;;;5043147;28;20342;-79
2024/03/15 09:31:36;;;;;;;1.58;1.10;;;;;;;;;;5048770;28;20440;-79
2024/03/15 09:34:02;;;;;;;5.63;1.20;;;;;;;;;;5033996;28;20069;-78
2024/03/15 09:36:31;;;;;;;2.15;1.30;;;;;;;;;;5041083;28;20029;-80
2024/03/15 09:38:57;;;;;;;1.10;1.00;;;;;;;;;;5040803;28;20021;-78
2024/03/15 09:41:23;;;;;;;1.52;1.42;;;;;;;;;;5047694;28;20035;-77
2024/03/15 09:43:50;;;;;;;2.83;1.40;;;;;;;;;;5047404;28;20013;-80
2024/03/15 09:46:17;;;;;;;2.03;1.13;;;;;;;;;;5048052;28;20125;-77
2024/03/15 09:48:49;;;;;;;1.67;1.02;;;;;;;;;;5047716;28;20064;-81
2024/03/15 09:51:18;;;;;;;2.05;0.98;;;;;;;;;;5035632;28;20045;-79
2024/03/15 09:53:45;;;;;;;1.40;1.20;;;;;;;;;;5036040;28;20022;-78
2024/03/15 09:56:14;;;;;;;0.93;0.85;;;;;;;;;;5048971;28;20021;-80
2024/03/15 09:58:50;;;;;;;2.08;1.30;;;;;;;;;;5047670;28;20028;-78
2024/03/15 10:01:16;;;;;;;4.25;1.30;;;;;;;;;;5042703;28;20072;-78
2024/03/15 10:04:11;;;;;;;2.60;1.20;;;;;;;;;;5033801;28;20025;-77
2024/03/15 10:06:37;;;;;;;1.80;1.15;;;;;;;;;;5035405;28;20021;-78
2024/03/15 10:09:12;;;;;;;0.85;0.85;;;;;;;;;;5044975;28;20025;-79
2024/03/15 10:11:39;;;;;;;1.02;0.93;;;;;;;;;;5026563;28;20089;-80
2024/03/15 10:14:05;;;;;;;1.27;1.10;;;;;;;;;;5036406;28;20496;-79
2024/03/15 10:16:37;;;;;;;1.17;1.08;;;;;;;;;;5043956;28;20035;-80
2024/03/15 10:19:04;;;;;;;1.75;1.52;;;;;;;;;;5047549;28;20029;-78
2024/03/15 10:21:30;;;;;;;1.40;0.85;;;;;;;;;;5051127;28;20033;-78
2024/03/15 10:23:58;;;;;;;2.08;1.08;;;;;;;;;;5039744;28;20023;-77
2024/03/15 10:26:24;;;;;;;2.67;1.20;;;;;;;;;;5053057;28;20025;-79
2024/03/15 10:28:50;;;;;;;1.55;1.10;;;;;;;;;;5051790;28;20480;-76
2024/03/15 10:31:16;;;;;;;0.98;0.90;;;;;;;;;;5041919;28;20484;-79
2024/03/15 10:33:46;;;;;;;2.90;1.40;;;;;;;;;;5053544;28;20060;-79
2024/03/15 10:36:12;;;;;;;1.83;1.00;;;;;;;;;;5048165;28;20076;-81
2024/03/15 10:38:38;;;;;;;2.65;1.17;;;;;;;;;;5039674;28;20025;-78
2024/03/15 10:41:05;;;;;;;2.22;1.10;;;;;;;;;;5041540;28;20018;-78
2024/03/15 10:43:32;;;;;;;1.70;1.20;;;;;;;;;;5054432;28;20021;-77
2024/03/15 10:46:01;;;;;;;1.63;1.10;;;;;;;;;;5056047;28;20025;-82
2024/03/15 10:48:27;;;;;;;3.20;1.00;;;;;;;;;;5053468;28;20060;-77
2024/03/15 10:50:55;;;;;;;1.27;1.10;;;;;;;;;;5038794;28;20026;-81
2024/03/15 10:53:24;;;;;;;3.20;1.10;;;;;;;;;;5051560;28;20146;-78
2024/03/15 10:55:51;;;;;;;1.27;1.17;;;;;;;;;;5043001;28;20041;-79
2024/03/15 10:58:17;;;;;;;1.02;0.80;;;;;;;;;;5039515;28;20105;-80
2024/03/15 11:00:47;;;;;;;1.52;1.30;;;;;;;;;;5048282;28;20068;-79
2024/03/15 11:03:31;;;;;;;1.80;1.23;;;;;;;;;;5042965;28;20088;-80
2024/03/15 11:06:01;;;;;;;1.73;1.23;;;;;;;;;;5046125;28;20085;-78
2024/03/15 11:11:29;;;;;;;2.85;1.33;;;;;;;;;;5041874;28;20047;-78
2024/03/15 11:13:55;;;;;;;1.30;1.20;;;;;;;;;;5038769;28;20067;-79
2024/03/15 11:16:25;;;;;;;1.95;1.33;;;;;;;;;;5043882;28;20068;-79
2024/03/15 11:18:51;;;;;;;2.92;1.65;;;;;;;;;;5051818;28;20021;-78
2024/03/15 11:21:19;;;;;;;1.70;1.60;;;;;;;;;;5040078;28;20025;-78
2024/03/15 11:23:45;;;;;;;1.73;1.30;;;;;;;;;;5050481;28;20022;-79
2024/03/15 11:26:15;;;;;;;2.60;1.42;;;;;;;;;;5049134;28;20013;-78
2024/03/15 11:28:42;;;;;;;1.45;1.10;;;;;;;;;;5045947;28;20022;-78
2024/03/15 11:31:16;;;;;;;1.85;1.25;;;;;;;;;;5059247;28;20016;-78
2024/03/15 11:33:46;;;;;;;2.05;1.38;;;;;;;;;;5058694;28;20033;-80
2024/03/15 11:36:13;;;;;;;1.73;1.35;;;;;;;;;;5073156;28;20028;-84
2024/03/15 11:38:45;;;;;;;2.60;1.83;;;;;;;;;;5057097;28;20103;-80
2024/03/15 11:41:12;;;;;;;2.05;1.40;;;;;;;;;;5040473;28;20022;-78
2024/03/15 11:43:45;;;;;;;2.13;1.15;;;;;;;;;;5041508;28;20021;-77
2024/03/15 11:46:11;;;;;;;1.90;1.10;;;;;;;;;;5039654;28;20025;-78
2024/03/15 11:48:37;;;;;;;1.92;1.42;;;;;;;;;;5039368;28;20021;-79
2024/03/15 11:51:05;;;;;;;2.17;1.35;;;;;;;;;;5036370;28;20072;-79
2024/03/15 11:53:34;;;;;;;2.17;1.48;;;;;;;;;;5036441;28;20611;-82
2024/03/15 11:56:00;;;;;;;1.25;1.00;;;;;;;;;;5038262;28;20558;-79
2024/03/15 11:58:26;;;;;;;2.15;1.45;;;;;;;;;;5055940;28;20028;-77
2024/03/15 12:00:53;;;;;;;3.50;1.63;;;;;;;;;;5049376;28;20018;-78
2024/03/15 12:03:21;;;;;;;2.00;1.45;;;;;;;;;;5041706;28;20055;-82
2024/03/15 12:05:48;;;;;;;2.03;1.50;;;;;;;;;;5054084;28;20093;-78
2024/03/15 12:08:15;;;;;;;2.17;1.52;;;;;;;;;;5057201;28;20120;-81
2024/03/15 12:10:44;;;;;;;1.60;1.50;;;;;;;;;;5061430;28;20472;-79
2024/03/15 12:13:14;;;;;;;1.67;1.40;;;;;;;;;;5037954;28;20030;-79
2024/03/15 12:15:41;;;;;;;2.53;1.50;;;;;;;;;;5040866;28;20040;-78
2024/03/15 12:18:13;;;;;;;5.85;2.20;;;;;;;;;;5055523;28;20037;-79
2024/03/15 12:20:40;;;;;;;2.05;1.85;;;;;;;;;;5049923;28;20020;-79
2024/03/15 12:23:07;;;;;;;4.40;1.98;;;;;;;;;;5043725;28;20129;-79
2024/03/15 12:25:34;;;;;;;3.05;2.05;;;;;;;;;;5034066;28;20033;-79
2024/03/15 12:28:00;;;;;;;3.08;2.10;;;;;;;;;;5034089;28;20356;-81
2024/03/15 12:30:26;;;;;;;3.28;1.40;;;;;;;;;;5033057;28;20452;-79
2024/03/15 12:32:52;;;;;;;2.08;1.60;;;;;;;;;;5043337;28;20044;-79
2024/03/15 12:35:18;;;;;;;3.47;1.33;;;;;;;;;;5051998;28;20025;-79
2024/03/15 12:37:45;;;;;;;3.63;1.63;;;;;;;;;;5049742;28;20018;-80
2024/03/15 12:40:17;;;;;;;2.53;1.50;;;;;;;;;;5042185;28;20025;-78
2024/03/15 12:42:44;;;;;;;3.60;1.60;;;;;;;;;;5032814;28;20485;-78
2024/03/15 12:45:10;;;;;;;1.83;1.63;;;;;;;;;;5033122;28;20018;-80
2024/03/15 12:47:37;;;;;;;2.35;1.05;;;;;;;;;;5040595;28;20025;-79
2024/03/15 12:50:11;;;;;;;2.75;1.38;;;;;;;;;;5033751;28;20029;-78
2024/03/15 12:52:37;;;;;;;2.50;1.45;;;;;;;;;;5036885;28;20030;-78
2024/03/15 12:55:05;;;;;;;2.13;1.65;;;;;;;;;;5059546;28;20075;-80
2024/03/15 12:57:31;;;;;;;2.72;1.30;;;;;;;;;;5049467;28;20017;-80
2024/03/15 12:59:57;;;;;;;2.38;1.48;;;;;;;;;;5052184;28;20115;-79
2024/03/15 13:02:25;;;;;;;1.92;1.40;;;;;;;;;;5048341;28;20036;-78
2024/03/15 13:04:52;;;;;;;1.92;1.23;;;;;;;;;;5041742;28;20543;-78
2024/03/15 13:07:18;;;;;;;1.48;1.10;;;;;;;;;;5036681;28;20027;-77
2024/03/15 13:09:44;;;;;;;2.13;1.25;;;;;;;;;;5047631;28;20067;-78
2024/03/15 13:12:10;;;;;;;2.53;1.38;;;;;;;;;;5033532;28;20036;-80
2024/03/15 13:14:36;;;;;;;1.75;1.58;;;;;;;;;;5033788;28;20071;-80
2024/03/15 13:17:03;;;;;;;2.30;1.50;;;;;;;;;;5033132;28;20018;-79
2024/03/15 13:19:30;;;;;;;3.35;1.30;;;;;;;;;;5035135;28;20101;-78
2024/03/15 13:21:56;;;;;;;2.75;1.52;;;;;;;;;;5042785;28;20049;-78
2024/03/15 13:24:23;;;;;;;2.67;1.35;;;;;;;;;;5035389;28;20477;-79
2024/03/15 13:26:49;;;;;;;1.70;1.30;;;;;;;;;;5038003;28;20030;-78
2024/03/15 13:29:15;;;;;;;3.45;1.92;;;;;;;;;;5047745;28;20060;-81
2024/03/15 13:31:41;;;;;;;1.88;1.65;;;;;;;;;;5040255;28;20239;-79
2024/03/15 13:34:08;;;;;;;1.33;1.20;;;;;;;;;;5035093;28;20032;-79
2024/03/15 13:36:34;;;;;;;3.08;1.45;;;;;;;;;;5044707;28;20018;-78
2024/03/15 13:39:00;;;;;;;1.27;1.17;;;;;;;;;;5050556;28;20029;-78
2024/03/15 13:41:27;;;;;;;1.67;1.15;;;;;;;;;;5040336;28;20044;-78
2024/03/15 13:43:53;;;;;;;1.30;0.95;;;;;;;;;;5033009;28;20141;-78
2024/03/15 13:46:21;;;;;;;1.85;1.25;;;;;;;;;;5033941;28;20025;-79
2024/03/15 13:48:48;;;;;;;1.70;1.30;;;;;;;;;;5041665;28;20033;-78
2024/03/15 13:51:14;;;;;;;1.15;1.05;;;;;;;;;;5050926;28;20428;-80
2024/03/15 13:53:44;;;;;;;1.08;0.90;;;;;;;;;;5045146;28;20063;-79
2024/03/15 13:56:12;;;;;;;1.48;1.17;;;;;;;;;;5058232;28;20017;-80
2024/03/15 13:58:38;;;;;;;2.05;1.17;;;;;;;;;;5043151;28;20029;-79
2024/03/15 14:01:18;;;;;;;0.98;0.98;;;;;;;;;;5054745;28;20426;-77
2024/03/15 14:03:45;;;;;;;1.33;1.00;;;;;;;;;;5043418;28;20510;-79
2024/03/15 14:06:12;;;;;;;3.83;1.30;;;;;;;;;;5045978;28;20037;-79
2024/03/15 14:08:38;;;;;;;4.65;1.48;;;;;;;;;;5052213;28;20029;-80
2024/03/15 14:11:07;;;;;;;2.20;1.27;;;;;;;;;;5049906;28;20108;-80
2024/03/15 14:13:34;;;;;;;1.55;1.45;;;;;;;;;;5053232;28;20634;-79
2024/03/15 14:16:00;;;;;;;1.85;1.08;;;;;;;;;;5049886;28;20053;-79
2024/03/15 14:18:26;;;;;;;3.50;1.20;;;;;;;;;;5040746;28;20476;-80
2024/03/15 14:20:53;;;;;;;2.00;1.25;;;;;;;;;;5040802;28;20026;-76
2024/03/15 14:23:20;;;;;;;1.42;0.90;;;;;;;;;;5038253;28;20097;-78
2024/03/15 14:25:46;;;;;;;1.13;0.77;;;;;;;;;;5036066;28;20028;-80
2024/03/15 14:28:12;;;;;;;1.30;1.20;;;;;;;;;;5017591;28;20030;-77
2024/03/15 14:30:38;;;;;;;0.93;0.90;;;;;;;;;;5028579;28;20024;-79
2024/03/15 14:33:11;;;;;;;1.63;0.90;;;;;;;;;;5023908;28;20056;-78
2024/03/15 14:35:37;;;;;;;0.70;0.70;;;;;;;;;;5044111;28;20021;-79
2024/03/15 14:38:04;;;;;;;1.80;1.40;;;;;;;;;;5033361;28;20018;-78
2024/03/15 14:40:34;;;;;;;1.77;1.23;;;;;;;;;;5035937;28;20026;-77
2024/03/15 14:43:02;;;;;;;2.00;1.30;;;;;;;;;;5039184;28;20033;-76
2024/03/15 14:45:33;;;;;;;1.55;1.15;;;;;;;;;;5021245;28;20108;-74
2024/03/15 14:47:59;;;;;;;2.67;1.40;;;;;;;;;;5026673;28;20037;-77
2024/03/15 14:50:29;;;;;;;1.27;1.17;;;;;;;;;;5034921;28;20021;-76
2024/03/15 14:52:57;;;;;;;1.92;1.20;;;;;;;;;;5038286;28;20124;-78
2024/03/15 14:55:24;;;;;;;3.15;1.42;;;;;;;;;;5032390;28;20028;-76